sensor_id;sensor_type;location;lat;lon;timestamp;P1;durP1;ratioP1;P2;durP2;ratioP2
7647;SDS011;3866;48.020;11.720;2024-01-30T00:00:06;3.67;;;3.33;;
7647;SDS011;3866;48.020;11.720;2024-01-30T00:02:34;6.53;;;4.20;;
7647;SDS011;3866;48.020;11.720;2024-01-30T00:05:01;4.30;;;3.53;;
7647;SDS011;3866;48.020;11.720;2024-01-30T00:07:29;4.60;;;3.87;;
7647;SDS011;3866;48.020;11.720;2024-01-30T00:09:58;5.63;;;3.43;;
7647;SDS011;3866;48.020;11.720;2024-01-30T00:12:25;7.93;;;3.93;;
7647;SDS011;3866;48.020;11.720;2024-01-30T00:14:52;5.10;;;4.03;;
7647;SDS011;3866;48.020;11.720;2024-01-30T00:17:20;7.20;;;5.53;;
7647;SDS011;3866;48.020;11.720;2024-01-30T00:19:47;5.97;;;4.57;;
7647;SDS011;3866;48.020;11.720;2024-01-30T00:22:14;4.47;;;4.07;;
7647;SDS011;3866;48.020;11.720;2024-01-30T00:24:41;5.73;;;4.43;;
7647;SDS011;3866;48.020;11.720;2024-01-30T00:27:08;5.77;;;3.80;;
7647;SDS011;3866;48.020;11.720;2024-01-30T00:29:35;4.67;;;3.50;;
7647;SDS011;3866;48.020;11.720;2024-01-30T00:32:01;4.90;;;3.77;;
7647;SDS011;3866;48.020;11.720;2024-01-30T00:34:30;6.47;;;4.37;;
7647;SDS011;3866;48.020;11.720;2024-01-30T00:36:56;4.33;;;3.80;;
7647;SDS011;3866;48.020;11.720;2024-01-30T00:39:23;4.87;;;3.57;;
7647;SDS011;3866;48.020;11.720;2024-01-30T00:41:50;3.97;;;3.00;;
7647;SDS011;3866;48.020;11.720;2024-01-30T00:44:17;4.87;;;3.50;;
7647;SDS011;3866;48.020;11.720;2024-01-30T00:46:44;3.90;;;3.50;;
7647;SDS011;3866;48.020;11.720;2024-01-30T00:49:11;5.70;;;3.60;;
7647;SDS011;3866;48.020;11.720;2024-01-30T00:51:39;4.53;;;3.13;;
7647;SDS011;3866;48.020;11.720;2024-01-30T00:54:06;4.50;;;3.43;;
7647;SDS011;3866;48.020;11.720;2024-01-30T00:56:33;3.93;;;3.40;;
7647;SDS011;3866;48.020;11.720;2024-01-30T00:59:00;5.50;;;3.80;;
7647;SDS011;3866;48.020;11.720;2024-01-30T01:01:26;4.03;;;3.20;;
7647;SDS011;3866;48.020;11.720;2024-01-30T01:03:53;3.90;;;2.83;;
7647;SDS011;3866;48.020;11.720;2024-01-30T01:06:20;6.17;;;3.47;;
7647;SDS011;3866;48.020;11.720;2024-01-30T01:08:48;3.87;;;3.53;;
7647;SDS011;3866;48.020;11.720;2024-01-30T01:11:15;3.90;;;2.87;;
7647;SDS011;3866;48.020;11.720;2024-01-30T01:13:42;3.90;;;2.87;;
7647;SDS011;3866;48.020;11.720;2024-01-30T01:16:09;3.83;;;3.43;;
7647;SDS011;3866;48.020;11.720;2024-01-30T01:18:36;5.47;;;3.33;;
7647;SDS011;3866;48.020;11.720;2024-01-30T01:21:03;4.00;;;3.13;;
7647;SDS011;3866;48.020;11.720;2024-01-30T01:23:30;4.23;;;3.67;;
7647;SDS011;3866;48.020;11.720;2024-01-30T01:25:58;4.50;;;3.10;;
7647;SDS011;3866;48.020;11.720;2024-01-30T01:28:26;3.90;;;2.93;;
7647;SDS011;3866;48.020;11.720;2024-01-30T01:30:53;3.57;;;3.27;;
7647;SDS011;3866;48.020;11.720;2024-01-30T01:33:24;4.33;;;3.30;;
7647;SDS011;3866;48.020;11.720;2024-01-30T01:35:51;3.63;;;2.83;;
7647;SDS011;3866;48.020;11.720;2024-01-30T01:38:18;3.90;;;2.67;;
7647;SDS011;3866;48.020;11.720;2024-01-30T01:40:45;3.20;;;2.90;;
7647;SDS011;3866;48.020;11.720;2024-01-30T01:43:13;4.03;;;3.27;;
7647;SDS011;3866;48.020;11.720;2024-01-30T01:45:40;3.67;;;2.77;;
7647;SDS011;3866;48.020;11.720;2024-01-30T01:48:07;3.23;;;2.87;;
7647;SDS011;3866;48.020;11.720;2024-01-30T01:50:35;5.33;;;3.53;;
7647;SDS011;3866;48.020;11.720;2024-01-30T01:53:03;4.43;;;3.70;;
7647;SDS011;3866;48.020;11.720;2024-01-30T01:55:31;4.77;;;3.13;;
7647;SDS011;3866;48.020;11.720;2024-01-30T01:57:58;3.80;;;3.50;;
7647;SDS011;3866;48.020;11.720;2024-01-30T02:00:26;3.53;;;2.80;;
7647;SDS011;3866;48.020;11.720;2024-01-30T02:02:54;3.27;;;2.40;;
7647;SDS011;3866;48.020;11.720;2024-01-30T02:05:21;5.93;;;3.20;;
7647;SDS011;3866;48.020;11.720;2024-01-30T02:07:50;3.83;;;2.77;;
7647;SDS011;3866;48.020;11.720;2024-01-30T02:10:17;7.43;;;3.20;;
7647;SDS011;3866;48.020;11.720;2024-01-30T02:12:44;3.10;;;2.80;;
7647;SDS011;3866;48.020;11.720;2024-01-30T02:15:13;3.50;;;2.37;;
7647;SDS011;3866;48.020;11.720;2024-01-30T02:17:41;3.30;;;2.53;;
7647;SDS011;3866;48.020;11.720;2024-01-30T02:20:08;3.10;;;2.80;;
7647;SDS011;3866;48.020;11.720;2024-01-30T02:22:37;2.93;;;2.50;;
7647;SDS011;3866;48.020;11.720;2024-01-30T02:25:05;2.93;;;2.40;;
7647;SDS011;3866;48.020;11.720;2024-01-30T02:27:32;4.83;;;3.00;;
7647;SDS011;3866;48.020;11.720;2024-01-30T02:29:59;2.70;;;2.10;;
7647;SDS011;3866;48.020;11.720;2024-01-30T02:32:26;2.73;;;2.13;;
7647;SDS011;3866;48.020;11.720;2024-01-30T02:34:53;2.60;;;2.40;;
7647;SDS011;3866;48.020;11.720;2024-01-30T02:37:20;3.47;;;2.63;;
7647;SDS011;3866;48.020;11.720;2024-01-30T02:39:48;3.77;;;2.80;;
7647;SDS011;3866;48.020;11.720;2024-01-30T02:42:15;3.63;;;2.50;;
7647;SDS011;3866;48.020;11.720;2024-01-30T02:44:42;4.00;;;3.10;;
7647;SDS011;3866;48.020;11.720;2024-01-30T02:47:08;2.87;;;2.43;;
7647;SDS011;3866;48.020;11.720;2024-01-30T02:49:35;3.00;;;2.70;;
7647;SDS011;3866;48.020;11.720;2024-01-30T02:52:02;4.37;;;2.70;;
7647;SDS011;3866;48.020;11.720;2024-01-30T02:54:29;2.87;;;2.57;;
7647;SDS011;3866;48.020;11.720;2024-01-30T02:56:58;3.63;;;2.60;;
7647;SDS011;3866;48.020;11.720;2024-01-30T02:59:24;2.87;;;2.37;;
7647;SDS011;3866;48.020;11.720;2024-01-30T03:01:51;3.70;;;2.70;;
7647;SDS011;3866;48.020;11.720;2024-01-30T03:04:18;3.93;;;2.43;;
7647;SDS011;3866;48.020;11.720;2024-01-30T03:06:44;2.60;;;2.40;;
7647;SDS011;3866;48.020;11.720;2024-01-30T03:09:12;2.80;;;2.50;;
7647;SDS011;3866;48.020;11.720;2024-01-30T03:11:39;3.03;;;2.40;;
7647;SDS011;3866;48.020;11.720;2024-01-30T03:14:07;2.70;;;2.43;;
7647;SDS011;3866;48.020;11.720;2024-01-30T03:16:36;2.37;;;1.87;;
7647;SDS011;3866;48.020;11.720;2024-01-30T03:19:03;2.87;;;2.67;;
7647;SDS011;3866;48.020;11.720;2024-01-30T03:21:30;2.17;;;2.00;;
7647;SDS011;3866;48.020;11.720;2024-01-30T03:23:57;3.67;;;2.40;;
7647;SDS011;3866;48.020;11.720;2024-01-30T03:26:24;2.77;;;2.20;;
7647;SDS011;3866;48.020;11.720;2024-01-30T03:28:51;3.33;;;2.10;;
7647;SDS011;3866;48.020;11.720;2024-01-30T03:31:19;3.20;;;2.40;;
7647;SDS011;3866;48.020;11.720;2024-01-30T03:33:46;3.10;;;2.57;;
7647;SDS011;3866;48.020;11.720;2024-01-30T03:36:14;4.63;;;2.80;;
7647;SDS011;3866;48.020;11.720;2024-01-30T03:38:41;2.57;;;2.37;;
7647;SDS011;3866;48.020;11.720;2024-01-30T03:41:08;3.00;;;2.10;;
7647;SDS011;3866;48.020;11.720;2024-01-30T03:43:35;2.87;;;2.40;;
7647;SDS011;3866;48.020;11.720;2024-01-30T03:46:03;2.60;;;2.40;;
7647;SDS011;3866;48.020;11.720;2024-01-30T03:48:31;2.57;;;2.37;;
7647;SDS011;3866;48.020;11.720;2024-01-30T03:50:58;2.30;;;2.20;;
7647;SDS011;3866;48.020;11.720;2024-01-30T03:53:25;2.20;;;1.97;;
7647;SDS011;3866;48.020;11.720;2024-01-30T03:55:52;2.23;;;1.80;;
7647;SDS011;3866;48.020;11.720;2024-01-30T03:58:19;2.97;;;2.27;;
7647;SDS011;3866;48.020;11.720;2024-01-30T04:00:46;3.43;;;1.97;;
7647;SDS011;3866;48.020;11.720;2024-01-30T04:03:13;2.37;;;2.10;;
7647;SDS011;3866;48.020;11.720;2024-01-30T04:05:42;2.77;;;2.13;;
7647;SDS011;3866;48.020;11.720;2024-01-30T04:08:09;3.87;;;1.87;;
7647;SDS011;3866;48.020;11.720;2024-01-30T04:10:36;2.10;;;1.90;;
7647;SDS011;3866;48.020;11.720;2024-01-30T04:13:03;5.60;;;1.97;;
7647;SDS011;3866;48.020;11.720;2024-01-30T04:15:28;2.40;;;1.90;;
7647;SDS011;3866;48.020;11.720;2024-01-30T04:17:57;2.57;;;2.10;;
7647;SDS011;3866;48.020;11.720;2024-01-30T04:20:24;2.93;;;1.90;;
7647;SDS011;3866;48.020;11.720;2024-01-30T04:22:52;2.10;;;1.70;;
7647;SDS011;3866;48.020;11.720;2024-01-30T04:25:19;2.00;;;1.80;;
7647;SDS011;3866;48.020;11.720;2024-01-30T04:27:46;2.93;;;2.10;;
7647;SDS011;3866;48.020;11.720;2024-01-30T04:30:13;2.53;;;1.90;;
7647;SDS011;3866;48.020;11.720;2024-01-30T04:32:40;2.90;;;1.83;;
7647;SDS011;3866;48.020;11.720;2024-01-30T04:35:07;2.70;;;1.77;;
7647;SDS011;3866;48.020;11.720;2024-01-30T04:37:34;2.10;;;1.80;;
7647;SDS011;3866;48.020;11.720;2024-01-30T04:40:02;3.07;;;1.90;;
7647;SDS011;3866;48.020;11.720;2024-01-30T04:42:30;1.70;;;1.60;;
7647;SDS011;3866;48.020;11.720;2024-01-30T04:44:57;2.73;;;2.27;;
7647;SDS011;3866;48.020;11.720;2024-01-30T04:47:23;2.63;;;2.00;;
7647;SDS011;3866;48.020;11.720;2024-01-30T04:49:51;2.07;;;1.70;;
7647;SDS011;3866;48.020;11.720;2024-01-30T04:52:18;2.20;;;2.00;;
7647;SDS011;3866;48.020;11.720;2024-01-30T04:54:45;1.80;;;1.47;;
7647;SDS011;3866;48.020;11.720;2024-01-30T04:57:13;1.50;;;1.40;;
7647;SDS011;3866;48.020;11.720;2024-01-30T04:59:40;1.60;;;1.50;;
7647;SDS011;3866;48.020;11.720;2024-01-30T05:02:07;2.73;;;1.57;;
7647;SDS011;3866;48.020;11.720;2024-01-30T05:04:34;1.70;;;1.60;;
7647;SDS011;3866;48.020;11.720;2024-01-30T05:07:01;1.40;;;1.30;;
7647;SDS011;3866;48.020;11.720;2024-01-30T05:09:28;2.10;;;1.50;;
7647;SDS011;3866;48.020;11.720;2024-01-30T05:11:55;1.57;;;1.30;;
7647;SDS011;3866;48.020;11.720;2024-01-30T05:14:24;2.33;;;2.00;;
7647;SDS011;3866;48.020;11.720;2024-01-30T05:16:51;3.47;;;1.50;;
7647;SDS011;3866;48.020;11.720;2024-01-30T05:19:18;1.70;;;1.60;;
7647;SDS011;3866;48.020;11.720;2024-01-30T05:21:45;1.83;;;1.30;;
7647;SDS011;3866;48.020;11.720;2024-01-30T05:24:12;1.67;;;1.33;;
7647;SDS011;3866;48.020;11.720;2024-01-30T05:26:39;1.47;;;1.13;;
7647;SDS011;3866;48.020;11.720;2024-01-30T05:29:06;1.60;;;1.10;;
7647;SDS011;3866;48.020;11.720;2024-01-30T05:31:34;1.60;;;1.20;;
7647;SDS011;3866;48.020;11.720;2024-01-30T05:34:01;1.90;;;1.20;;
7647;SDS011;3866;48.020;11.720;2024-01-30T05:36:28;1.93;;;1.23;;
7647;SDS011;3866;48.020;11.720;2024-01-30T05:38:55;1.50;;;0.93;;
7647;SDS011;3866;48.020;11.720;2024-01-30T05:41:22;1.70;;;0.93;;
7647;SDS011;3866;48.020;11.720;2024-01-30T05:43:49;1.00;;;0.90;;
7647;SDS011;3866;48.020;11.720;2024-01-30T05:46:16;1.43;;;1.20;;
7647;SDS011;3866;48.020;11.720;2024-01-30T05:48:44;0.87;;;0.87;;
7647;SDS011;3866;48.020;11.720;2024-01-30T05:51:11;2.13;;;1.03;;
7647;SDS011;3866;48.020;11.720;2024-01-30T05:53:38;1.00;;;0.80;;
7647;SDS011;3866;48.020;11.720;2024-01-30T05:56:05;1.47;;;0.90;;
7647;SDS011;3866;48.020;11.720;2024-01-30T05:58:32;0.80;;;0.80;;
7647;SDS011;3866;48.020;11.720;2024-01-30T06:00:59;0.80;;;0.80;;
7647;SDS011;3866;48.020;11.720;2024-01-30T06:03:26;0.90;;;0.90;;
7647;SDS011;3866;48.020;11.720;2024-01-30T06:05:54;1.47;;;0.90;;
7647;SDS011;3866;48.020;11.720;2024-01-30T06:08:21;1.33;;;1.23;;
7647;SDS011;3866;48.020;11.720;2024-01-30T06:10:48;1.63;;;1.00;;
7647;SDS011;3866;48.020;11.720;2024-01-30T06:13:15;1.67;;;1.10;;
7647;SDS011;3866;48.020;11.720;2024-01-30T06:15:42;1.27;;;1.10;;
7647;SDS011;3866;48.020;11.720;2024-01-30T06:18:08;2.00;;;1.10;;
7647;SDS011;3866;48.020;11.720;2024-01-30T06:20:35;2.03;;;1.20;;
7647;SDS011;3866;48.020;11.720;2024-01-30T06:23:04;1.07;;;1.00;;
7647;SDS011;3866;48.020;11.720;2024-01-30T06:25:31;0.63;;;0.63;;
7647;SDS011;3866;48.020;11.720;2024-01-30T06:27:57;1.30;;;1.20;;
7647;SDS011;3866;48.020;11.720;2024-01-30T06:30:24;1.33;;;1.20;;
7647;SDS011;3866;48.020;11.720;2024-01-30T06:32:51;2.13;;;1.07;;
7647;SDS011;3866;48.020;11.720;2024-01-30T06:35:18;1.57;;;0.90;;
7647;SDS011;3866;48.020;11.720;2024-01-30T06:37:46;2.03;;;1.00;;
7647;SDS011;3866;48.020;11.720;2024-01-30T06:40:15;1.43;;;0.90;;
7647;SDS011;3866;48.020;11.720;2024-01-30T06:42:42;1.20;;;1.10;;
7647;SDS011;3866;48.020;11.720;2024-01-30T06:45:09;1.43;;;1.07;;
7647;SDS011;3866;48.020;11.720;2024-01-30T06:47:36;1.23;;;1.13;;
7647;SDS011;3866;48.020;11.720;2024-01-30T06:50:03;1.60;;;0.80;;
7647;SDS011;3866;48.020;11.720;2024-01-30T06:52:30;1.50;;;1.07;;
7647;SDS011;3866;48.020;11.720;2024-01-30T06:54:57;2.23;;;1.50;;
7647;SDS011;3866;48.020;11.720;2024-01-30T06:57:25;2.60;;;1.60;;
7647;SDS011;3866;48.020;11.720;2024-01-30T06:59:53;1.27;;;1.10;;
7647;SDS011;3866;48.020;11.720;2024-01-30T07:02:21;1.60;;;1.00;;
7647;SDS011;3866;48.020;11.720;2024-01-30T07:04:48;1.20;;;1.10;;
7647;SDS011;3866;48.020;11.720;2024-01-30T07:07:15;1.70;;;1.10;;
7647;SDS011;3866;48.020;11.720;2024-01-30T07:09:42;1.30;;;1.10;;
7647;SDS011;3866;48.020;11.720;2024-01-30T07:12:09;1.83;;;0.60;;
7647;SDS011;3866;48.020;11.720;2024-01-30T07:14:37;1.70;;;1.10;;
7647;SDS011;3866;48.020;11.720;2024-01-30T07:17:04;0.87;;;0.87;;
7647;SDS011;3866;48.020;11.720;2024-01-30T07:19:32;1.00;;;0.77;;
7647;SDS011;3866;48.020;11.720;2024-01-30T07:21:59;2.40;;;0.87;;
7647;SDS011;3866;48.020;11.720;2024-01-30T07:24:26;0.90;;;0.90;;
7647;SDS011;3866;48.020;11.720;2024-01-30T07:26:53;1.37;;;1.10;;
7647;SDS011;3866;48.020;11.720;2024-01-30T07:29:20;1.20;;;1.00;;
7647;SDS011;3866;48.020;11.720;2024-01-30T07:31:48;1.23;;;1.00;;
7647;SDS011;3866;48.020;11.720;2024-01-30T07:34:15;2.70;;;1.10;;
7647;SDS011;3866;48.020;11.720;2024-01-30T07:36:42;0.83;;;0.60;;
7647;SDS011;3866;48.020;11.720;2024-01-30T07:39:09;2.30;;;0.60;;
7647;SDS011;3866;48.020;11.720;2024-01-30T07:41:36;1.57;;;0.80;;
7647;SDS011;3866;48.020;11.720;2024-01-30T07:44:03;0.97;;;0.93;;
7647;SDS011;3866;48.020;11.720;2024-01-30T07:46:30;1.60;;;0.90;;
7647;SDS011;3866;48.020;11.720;2024-01-30T07:48:58;0.80;;;0.67;;
7647;SDS011;3866;48.020;11.720;2024-01-30T07:51:25;0.93;;;0.90;;
7647;SDS011;3866;48.020;11.720;2024-01-30T07:53:53;1.80;;;1.00;;
7647;SDS011;3866;48.020;11.720;2024-01-30T07:56:20;0.80;;;0.60;;
7647;SDS011;3866;48.020;11.720;2024-01-30T07:58:47;1.17;;;0.80;;
7647;SDS011;3866;48.020;11.720;2024-01-30T08:01:14;0.80;;;0.60;;
7647;SDS011;3866;48.020;11.720;2024-01-30T08:03:41;1.17;;;0.70;;
7647;SDS011;3866;48.020;11.720;2024-01-30T08:06:09;0.60;;;0.50;;
7647;SDS011;3866;48.020;11.720;2024-01-30T08:08:36;1.40;;;0.60;;
7647;SDS011;3866;48.020;11.720;2024-01-30T08:11:03;0.80;;;0.70;;
7647;SDS011;3866;48.020;11.720;2024-01-30T08:13:30;0.77;;;0.60;;
7647;SDS011;3866;48.020;11.720;2024-01-30T08:15:57;1.23;;;0.60;;
7647;SDS011;3866;48.020;11.720;2024-01-30T08:18:24;0.77;;;0.63;;
7647;SDS011;3866;48.020;11.720;2024-01-30T08:20:51;0.73;;;0.60;;
7647;SDS011;3866;48.020;11.720;2024-01-30T08:23:19;0.57;;;0.53;;
7647;SDS011;3866;48.020;11.720;2024-01-30T08:25:49;0.97;;;0.87;;
7647;SDS011;3866;48.020;11.720;2024-01-30T08:28:25;0.70;;;0.70;;
7647;SDS011;3866;48.020;11.720;2024-01-30T08:30:52;0.60;;;0.60;;
7647;SDS011;3866;48.020;11.720;2024-01-30T08:33:19;1.30;;;1.20;;
7647;SDS011;3866;48.020;11.720;2024-01-30T08:35:46;1.20;;;0.77;;
7647;SDS011;3866;48.020;11.720;2024-01-30T08:38:12;0.97;;;0.50;;
7647;SDS011;3866;48.020;11.720;2024-01-30T08:40:41;1.57;;;0.90;;
7647;SDS011;3866;48.020;11.720;2024-01-30T08:43:07;2.50;;;0.80;;
7647;SDS011;3866;48.020;11.720;2024-01-30T08:45:35;1.23;;;0.80;;
7647;SDS011;3866;48.020;11.720;2024-01-30T08:48:02;2.17;;;1.60;;
7647;SDS011;3866;48.020;11.720;2024-01-30T08:50:29;1.17;;;0.73;;
7647;SDS011;3866;48.020;11.720;2024-01-30T08:52:56;0.73;;;0.70;;
7647;SDS011;3866;48.020;11.720;2024-01-30T08:55:23;0.93;;;0.80;;
7647;SDS011;3866;48.020;11.720;2024-01-30T08:57:51;1.10;;;0.70;;
7647;SDS011;3866;48.020;11.720;2024-01-30T09:00:18;1.13;;;0.80;;
7647;SDS011;3866;48.020;11.720;2024-01-30T09:02:45;0.80;;;0.80;;
7647;SDS011;3866;48.020;11.720;2024-01-30T09:05:12;0.83;;;0.60;;
7647;SDS011;3866;48.020;11.720;2024-01-30T09:07:39;2.30;;;0.83;;
7647;SDS011;3866;48.020;11.720;2024-01-30T09:10:06;0.50;;;0.50;;
7647;SDS011;3866;48.020;11.720;2024-01-30T09:12:33;2.30;;;0.80;;
7647;SDS011;3866;48.020;11.720;2024-01-30T09:15:01;1.13;;;0.50;;
7647;SDS011;3866;48.020;11.720;2024-01-30T09:17:29;0.57;;;0.50;;
7647;SDS011;3866;48.020;11.720;2024-01-30T09:19:56;0.87;;;0.67;;
7647;SDS011;3866;48.020;11.720;2024-01-30T09:22:22;2.93;;;0.70;;
7647;SDS011;3866;48.020;11.720;2024-01-30T09:24:49;1.07;;;0.60;;
7647;SDS011;3866;48.020;11.720;2024-01-30T09:27:16;0.70;;;0.40;;
7647;SDS011;3866;48.020;11.720;2024-01-30T09:29:42;0.97;;;0.60;;
7647;SDS011;3866;48.020;11.720;2024-01-30T09:32:10;1.13;;;0.60;;
7647;SDS011;3866;48.020;11.720;2024-01-30T09:34:37;0.60;;;0.60;;
7647;SDS011;3866;48.020;11.720;2024-01-30T09:37:04;0.97;;;0.73;;
7647;SDS011;3866;48.020;11.720;2024-01-30T09:39:31;0.67;;;0.53;;
7647;SDS011;3866;48.020;11.720;2024-01-30T09:42:00;1.63;;;0.57;;
7647;SDS011;3866;48.020;11.720;2024-01-30T09:44:31;1.20;;;1.10;;
7647;SDS011;3866;48.020;11.720;2024-01-30T09:47:04;2.23;;;1.30;;
7647;SDS011;3866;48.020;11.720;2024-01-30T09:49:33;1.50;;;1.20;;
7647;SDS011;3866;48.020;11.720;2024-01-30T09:52:00;2.27;;;1.43;;
7647;SDS011;3866;48.020;11.720;2024-01-30T09:54:28;2.83;;;1.73;;
7647;SDS011;3866;48.020;11.720;2024-01-30T09:56:56;1.90;;;1.60;;
7647;SDS011;3866;48.020;11.720;2024-01-30T09:59:23;4.07;;;1.70;;
7647;SDS011;3866;48.020;11.720;2024-01-30T10:01:50;1.73;;;1.23;;
7647;SDS011;3866;48.020;11.720;2024-01-30T10:04:17;1.07;;;1.00;;
7647;SDS011;3866;48.020;11.720;2024-01-30T10:06:46;1.43;;;0.70;;
7647;SDS011;3866;48.020;11.720;2024-01-30T10:09:13;1.30;;;1.00;;
7647;SDS011;3866;48.020;11.720;2024-01-30T10:11:40;2.17;;;1.20;;
7647;SDS011;3866;48.020;11.720;2024-01-30T10:14:07;1.30;;;0.93;;
7647;SDS011;3866;48.020;11.720;2024-01-30T10:16:34;1.77;;;1.40;;
7647;SDS011;3866;48.020;11.720;2024-01-30T10:19:03;1.07;;;0.97;;
7647;SDS011;3866;48.020;11.720;2024-01-30T10:21:29;6.03;;;3.70;;
7647;SDS011;3866;48.020;11.720;2024-01-30T10:23:58;4.30;;;2.77;;
7647;SDS011;3866;48.020;11.720;2024-01-30T10:26:25;4.63;;;3.30;;
7647;SDS011;3866;48.020;11.720;2024-01-30T10:28:54;3.67;;;2.20;;
7647;SDS011;3866;48.020;11.720;2024-01-30T10:31:21;1.63;;;1.30;;
7647;SDS011;3866;48.020;11.720;2024-01-30T10:33:49;1.57;;;1.10;;
7647;SDS011;3866;48.020;11.720;2024-01-30T10:36:16;1.23;;;1.07;;
7647;SDS011;3866;48.020;11.720;2024-01-30T10:38:44;1.97;;;1.13;;
7647;SDS011;3866;48.020;11.720;2024-01-30T10:41:14;0.97;;;0.80;;
7647;SDS011;3866;48.020;11.720;2024-01-30T10:43:44;0.90;;;0.73;;
7647;SDS011;3866;48.020;11.720;2024-01-30T10:46:24;0.87;;;0.70;;
7647;SDS011;3866;48.020;11.720;2024-01-30T10:48:59;1.47;;;0.90;;
7647;SDS011;3866;48.020;11.720;2024-01-30T10:51:27;2.00;;;0.90;;
7647;SDS011;3866;48.020;11.720;2024-01-30T10:53:55;3.17;;;1.00;;
7647;SDS011;3866;48.020;11.720;2024-01-30T10:56:24;4.43;;;0.90;;
7647;SDS011;3866;48.020;11.720;2024-01-30T10:58:51;2.20;;;0.60;;
7647;SDS011;3866;48.020;11.720;2024-01-30T11:01:19;2.27;;;0.97;;
7647;SDS011;3866;48.020;11.720;2024-01-30T11:03:48;6.60;;;1.20;;
7647;SDS011;3866;48.020;11.720;2024-01-30T11:06:15;5.10;;;0.80;;
7647;SDS011;3866;48.020;11.720;2024-01-30T11:08:44;1.77;;;0.60;;
7647;SDS011;3866;48.020;11.720;2024-01-30T11:11:11;4.93;;;0.90;;
7647;SDS011;3866;48.020;11.720;2024-01-30T11:13:40;2.10;;;0.70;;
7647;SDS011;3866;48.020;11.720;2024-01-30T11:16:08;1.67;;;0.70;;
7647;SDS011;3866;48.020;11.720;2024-01-30T11:18:38;1.17;;;0.70;;
7647;SDS011;3866;48.020;11.720;2024-01-30T11:21:05;3.33;;;1.17;;
7647;SDS011;3866;48.020;11.720;2024-01-30T11:23:33;1.43;;;1.23;;
7647;SDS011;3866;48.020;11.720;2024-01-30T11:26:01;2.20;;;1.00;;
7647;SDS011;3866;48.020;11.720;2024-01-30T11:28:32;2.47;;;1.03;;
7647;SDS011;3866;48.020;11.720;2024-01-30T11:31:04;4.50;;;3.50;;
7647;SDS011;3866;48.020;11.720;2024-01-30T11:33:32;10.70;;;9.60;;
7647;SDS011;3866;48.020;11.720;2024-01-30T11:35:59;15.13;;;4.70;;
7647;SDS011;3866;48.020;11.720;2024-01-30T11:38:27;7.53;;;2.20;;
7647;SDS011;3866;48.020;11.720;2024-01-30T11:40:54;6.70;;;1.93;;
7647;SDS011;3866;48.020;11.720;2024-01-30T11:43:21;6.77;;;1.20;;
7647;SDS011;3866;48.020;11.720;2024-01-30T11:45:48;6.33;;;1.63;;
7647;SDS011;3866;48.020;11.720;2024-01-30T11:48:17;5.13;;;1.53;;
7647;SDS011;3866;48.020;11.720;2024-01-30T11:50:44;2.13;;;1.17;;
7647;SDS011;3866;48.020;11.720;2024-01-30T11:53:11;3.77;;;1.40;;
7647;SDS011;3866;48.020;11.720;2024-01-30T11:55:38;7.30;;;1.80;;
7647;SDS011;3866;48.020;11.720;2024-01-30T11:58:05;2.03;;;1.40;;
7647;SDS011;3866;48.020;11.720;2024-01-30T12:00:32;3.40;;;2.00;;
7647;SDS011;3866;48.020;11.720;2024-01-30T12:02:59;2.90;;;1.40;;
7647;SDS011;3866;48.020;11.720;2024-01-30T12:05:28;6.07;;;1.53;;
7647;SDS011;3866;48.020;11.720;2024-01-30T12:07:55;2.83;;;1.47;;
7647;SDS011;3866;48.020;11.720;2024-01-30T12:10:24;0.97;;;0.80;;
7647;SDS011;3866;48.020;11.720;2024-01-30T12:12:51;3.83;;;1.50;;
7647;SDS011;3866;48.020;11.720;2024-01-30T12:15:21;3.50;;;1.70;;
7647;SDS011;3866;48.020;11.720;2024-01-30T12:17:48;1.83;;;1.20;;
7647;SDS011;3866;48.020;11.720;2024-01-30T12:20:17;1.87;;;0.90;;
7647;SDS011;3866;48.020;11.720;2024-01-30T12:22:48;3.50;;;1.20;;
7647;SDS011;3866;48.020;11.720;2024-01-30T12:25:15;2.07;;;1.10;;
7647;SDS011;3866;48.020;11.720;2024-01-30T12:27:44;1.53;;;1.10;;
7647;SDS011;3866;48.020;11.720;2024-01-30T12:30:12;1.83;;;0.90;;
7647;SDS011;3866;48.020;11.720;2024-01-30T12:32:40;1.70;;;0.80;;
7647;SDS011;3866;48.020;11.720;2024-01-30T12:35:09;5.23;;;1.20;;
7647;SDS011;3866;48.020;11.720;2024-01-30T12:37:36;1.80;;;1.10;;
7647;SDS011;3866;48.020;11.720;2024-01-30T12:40:05;2.67;;;0.90;;
7647;SDS011;3866;48.020;11.720;2024-01-30T12:42:34;1.60;;;1.20;;
7647;SDS011;3866;48.020;11.720;2024-01-30T12:45:01;2.80;;;0.83;;
7647;SDS011;3866;48.020;11.720;2024-01-30T12:47:29;2.40;;;1.07;;
7647;SDS011;3866;48.020;11.720;2024-01-30T12:49:56;2.67;;;1.27;;
7647;SDS011;3866;48.020;11.720;2024-01-30T12:52:23;1.23;;;0.67;;
7647;SDS011;3866;48.020;11.720;2024-01-30T12:54:50;1.37;;;0.73;;
7647;SDS011;3866;48.020;11.720;2024-01-30T12:57:19;1.93;;;1.10;;
7647;SDS011;3866;48.020;11.720;2024-01-30T12:59:46;1.63;;;0.97;;
7647;SDS011;3866;48.020;11.720;2024-01-30T13:02:13;1.67;;;1.00;;
7647;SDS011;3866;48.020;11.720;2024-01-30T13:04:41;1.47;;;0.90;;
7647;SDS011;3866;48.020;11.720;2024-01-30T13:07:09;2.70;;;1.00;;
7647;SDS011;3866;48.020;11.720;2024-01-30T13:09:36;4.37;;;1.03;;
7647;SDS011;3866;48.020;11.720;2024-01-30T13:12:03;4.30;;;0.93;;
7647;SDS011;3866;48.020;11.720;2024-01-30T13:14:32;1.17;;;0.70;;
7647;SDS011;3866;48.020;11.720;2024-01-30T13:16:58;2.90;;;1.10;;
7647;SDS011;3866;48.020;11.720;2024-01-30T13:19:25;1.77;;;0.83;;
7647;SDS011;3866;48.020;11.720;2024-01-30T13:21:52;2.67;;;1.13;;
7647;SDS011;3866;48.020;11.720;2024-01-30T13:24:19;1.13;;;0.60;;
7647;SDS011;3866;48.020;11.720;2024-01-30T13:26:46;1.80;;;0.60;;
7647;SDS011;3866;48.020;11.720;2024-01-30T13:29:13;2.73;;;0.90;;
7647;SDS011;3866;48.020;11.720;2024-01-30T13:31:41;3.10;;;1.10;;
7647;SDS011;3866;48.020;11.720;2024-01-30T13:34:09;1.87;;;0.90;;
7647;SDS011;3866;48.020;11.720;2024-01-30T13:36:36;0.87;;;0.60;;
7647;SDS011;3866;48.020;11.720;2024-01-30T13:39:03;1.17;;;0.70;;
7647;SDS011;3866;48.020;11.720;2024-01-30T13:41:35;3.03;;;0.80;;
7647;SDS011;3866;48.020;11.720;2024-01-30T13:44:02;1.63;;;0.80;;
7647;SDS011;3866;48.020;11.720;2024-01-30T13:46:29;2.17;;;0.80;;
7647;SDS011;3866;48.020;11.720;2024-01-30T13:48:57;1.77;;;1.17;;
7647;SDS011;3866;48.020;11.720;2024-01-30T13:51:24;4.03;;;1.17;;
7647;SDS011;3866;48.020;11.720;2024-01-30T13:53:51;5.50;;;1.27;;
7647;SDS011;3866;48.020;11.720;2024-01-30T13:56:18;3.33;;;1.30;;
7647;SDS011;3866;48.020;11.720;2024-01-30T13:58:45;2.90;;;1.10;;
7647;SDS011;3866;48.020;11.720;2024-01-30T14:01:14;0.80;;;0.80;;
7647;SDS011;3866;48.020;11.720;2024-01-30T14:03:40;1.93;;;1.23;;
7647;SDS011;3866;48.020;11.720;2024-01-30T14:06:09;3.13;;;0.97;;
7647;SDS011;3866;48.020;11.720;2024-01-30T14:08:36;1.80;;;0.77;;
7647;SDS011;3866;48.020;11.720;2024-01-30T14:11:03;1.80;;;1.30;;
7647;SDS011;3866;48.020;11.720;2024-01-30T14:13:30;2.40;;;0.73;;
7647;SDS011;3866;48.020;11.720;2024-01-30T14:15:57;2.13;;;1.03;;
7647;SDS011;3866;48.020;11.720;2024-01-30T14:18:25;2.27;;;0.87;;
7647;SDS011;3866;48.020;11.720;2024-01-30T14:20:51;2.10;;;1.10;;
7647;SDS011;3866;48.020;11.720;2024-01-30T14:23:20;1.73;;;0.93;;
7647;SDS011;3866;48.020;11.720;2024-01-30T14:25:47;2.03;;;1.40;;
7647;SDS011;3866;48.020;11.720;2024-01-30T14:28:16;3.63;;;1.30;;
7647;SDS011;3866;48.020;11.720;2024-01-30T14:30:43;2.53;;;1.30;;
7647;SDS011;3866;48.020;11.720;2024-01-30T14:33:10;5.97;;;1.50;;
7647;SDS011;3866;48.020;11.720;2024-01-30T14:35:37;3.50;;;0.90;;
7647;SDS011;3866;48.020;11.720;2024-01-30T14:38:04;2.50;;;1.10;;
7647;SDS011;3866;48.020;11.720;2024-01-30T14:40:34;5.03;;;4.13;;
7647;SDS011;3866;48.020;11.720;2024-01-30T14:43:02;3.97;;;3.07;;
7647;SDS011;3866;48.020;11.720;2024-01-30T14:45:29;3.73;;;2.37;;
7647;SDS011;3866;48.020;11.720;2024-01-30T14:47:56;1.87;;;1.43;;
7647;SDS011;3866;48.020;11.720;2024-01-30T14:50:23;1.97;;;1.80;;
7647;SDS011;3866;48.020;11.720;2024-01-30T14:52:50;2.97;;;1.60;;
7647;SDS011;3866;48.020;11.720;2024-01-30T14:55:17;4.20;;;1.73;;
7647;SDS011;3866;48.020;11.720;2024-01-30T14:57:45;5.33;;;1.97;;
7647;SDS011;3866;48.020;11.720;2024-01-30T15:00:14;3.87;;;1.27;;